Time;durP1;ratioP1;P1;durP2;ratioP2;P2;SDS_P1;SDS_P2;PMS_P1;PMS_P2;Temp;Humidity;BMP_temperature;BMP_pressure;BME280_temperature;BME280_humidity;BME280_pressure;Samples;Min_cycle;Max_cycle;Signal;HPM_P1;HPM_P2
2023/07/07 00:00:39;;;;;;;;;;;11.90;74.10;;;;;;6162500;23;20124;-93
2023/07/07 00:03:05;;;;;;;;;;;11.90;74.10;;;;;;6160810;23;19919;-91
2023/07/07 00:05:31;;;;;;;;;;;11.90;74.20;;;;;;6162339;23;19920;-92
2023/07/07 00:07:57;;;;;;;;;;;11.80;74.10;;;;;;6153583;23;20290;-92
2023/07/07 00:10:23;;;;;;;;;;;11.70;74.20;;;;;;6162244;23;19974;-91
2023/07/07 00:12:48;;;;;;;;;;;11.70;74.70;;;;;;6160353;23;19924;-92
2023/07/07 00:15:14;;;;;;;;;;;11.70;74.70;;;;;;6137671;23;19920;-91
2023/07/07 00:17:43;;;;;;;;;;;11.70;74.40;;;;;;6140534;23;19924;-92
2023/07/07 00:20:10;;;;;;;;;;;11.70;74.30;;;;;;6138712;23;20347;-92
2023/07/07 00:22:36;;;;;;;;;;;11.70;74.00;;;;;;6136550;23;19924;-92
2023/07/07 00:25:02;;;;;;;;;;;11.60;74.10;;;;;;6137502;23;19930;-92
2023/07/07 00:27:30;;;;;;;;;;;11.60;74.90;;;;;;6153444;23;19950;-91
2023/07/07 00:29:56;;;;;;;;;;;11.50;75.00;;;;;;6162362;23;20002;-92
2023/07/07 00:32:22;;;;;;;;;;;11.50;76.60;;;;;;6160704;23;20006;-92
2023/07/07 00:34:48;;;;;;;;;;;11.50;77.10;;;;;;6162641;23;19924;-92
2023/07/07 00:37:13;;;;;;;;;;;11.50;77.10;;;;;;6155454;23;20710;-92
2023/07/07 00:39:39;;;;;;;;;;;11.50;76.90;;;;;;6162322;23;19987;-92
2023/07/07 00:42:05;;;;;;;;;;;11.50;76.90;;;;;;6146169;23;19924;-91
2023/07/07 00:44:50;;;;;;;;;;;11.50;77.10;;;;;;6163042;23;19967;-92
2023/07/07 00:47:17;;;;;;;;;;;11.50;77.20;;;;;;6152340;23;20327;-93
2023/07/07 00:49:45;;;;;;;;;;;11.50;77.20;;;;;;6162491;23;19927;-91
2023/07/07 00:52:10;;;;;;;;;;;11.50;77.10;;;;;;6160580;23;20282;-93
2023/07/07 00:54:36;;;;;;;;;;;11.50;77.10;;;;;;6139622;23;19924;-92
2023/07/07 00:57:03;;;;;;;;;;;11.40;77.00;;;;;;6155547;23;19916;-90
2023/07/07 00:59:35;;;;;;;;;;;11.40;77.10;;;;;;6163646;23;19919;-92
2023/07/07 01:02:09;;;;;;;;;;;11.50;77.20;;;;;;6164220;23;19966;-91
2023/07/07 01:04:35;;;;;;;;;;;11.50;77.10;;;;;;6162894;23;19920;-93
2023/07/07 01:07:07;;;;;;;;;;;11.50;77.20;;;;;;6157262;23;19926;-92
2023/07/07 01:09:36;;;;;;;;;;;11.40;77.10;;;;;;6161555;23;19935;-91
2023/07/07 01:12:01;;;;;;;;;;;11.40;77.10;;;;;;6163609;23;19927;-92
2023/07/07 01:14:29;;;;;;;;;;;11.50;77.50;;;;;;6162781;23;19927;-91
2023/07/07 01:17:01;;;;;;;;;;;11.50;77.50;;;;;;6156803;23;19916;-91
2023/07/07 01:19:46;;;;;;;;;;;11.50;77.20;;;;;;6162015;23;19920;-91
2023/07/07 01:22:15;;;;;;;;;;;11.50;76.60;;;;;;6162068;23;20042;-91
2023/07/07 01:24:46;;;;;;;;;;;11.50;76.20;;;;;;6164017;23;19967;-92
2023/07/07 01:27:15;;;;;;;;;;;11.40;76.20;;;;;;6154973;23;19924;-92
2023/07/07 01:30:02;;;;;;;;;;;11.40;76.20;;;;;;6163937;23;19920;-91
2023/07/07 01:32:31;;;;;;;;;;;11.30;76.60;;;;;;6162324;23;20353;-92
2023/07/07 01:34:58;;;;;;;;;;;11.30;76.70;;;;;;6163618;23;20335;-91
2023/07/07 01:37:24;;;;;;;;;;;11.20;76.50;;;;;;6156213;23;19920;-91
2023/07/07 01:39:50;;;;;;;;;;;11.20;76.00;;;;;;6164044;23;19927;-92
2023/07/07 01:42:20;;;;;;;;;;;11.20;75.80;;;;;;6147005;23;19959;-92
2023/07/07 01:44:46;;;;;;;;;;;11.20;75.70;;;;;;6163593;23;19967;-92
2023/07/07 01:47:15;;;;;;;;;;;11.10;75.80;;;;;;6154464;23;19935;-92
2023/07/07 01:49:44;;;;;;;;;;;11.10;76.00;;;;;;6163546;23;19931;-91
2023/07/07 01:52:30;;;;;;;;;;;11.10;76.10;;;;;;6161318;23;20028;-92
2023/07/07 01:55:16;;;;;;;;;;;11.10;76.10;;;;;;6187463;23;19990;-92
2023/07/07 01:57:43;;;;;;;;;;;11.00;75.70;;;;;;6154673;23;19936;-91
2023/07/07 02:00:10;;;;;;;;;;;11.00;75.50;;;;;;6163892;23;19927;-91
2023/07/07 02:02:35;;;;;;;;;;;11.00;75.50;;;;;;6161052;23;20334;-91
2023/07/07 02:05:01;;;;;;;;;;;11.00;75.50;;;;;;6163733;23;19927;-91
2023/07/07 02:07:27;;;;;;;;;;;11.00;75.40;;;;;;6154025;23;19935;-91
2023/07/07 02:09:52;;;;;;;;;;;10.90;75.50;;;;;;6163204;23;20003;-90
2023/07/07 02:12:18;;;;;;;;;;;10.90;75.90;;;;;;6123334;23;19920;-91
2023/07/07 02:14:44;;;;;;;;;;;10.90;76.20;;;;;;6138577;23;19927;-91
2023/07/07 02:17:09;;;;;;;;;;;10.80;76.10;;;;;;6155111;23;19920;-91
2023/07/07 02:19:35;;;;;;;;;;;10.80;75.80;;;;;;6162572;23;20401;-92
2023/07/07 02:22:01;;;;;;;;;;;10.80;75.50;;;;;;6163891;23;19990;-92
2023/07/07 02:24:29;;;;;;;;;;;10.80;75.50;;;;;;6162097;23;19947;-91
2023/07/07 02:26:54;;;;;;;;;;;10.70;75.40;;;;;;6157056;23;20497;-92
2023/07/07 02:29:20;;;;;;;;;;;10.70;75.40;;;;;;6161334;23;19920;-92
2023/07/07 02:31:45;;;;;;;;;;;10.70;75.70;;;;;;6163361;23;20003;-92
2023/07/07 02:34:11;;;;;;;;;;;10.70;75.70;;;;;;6162029;23;19920;-91
2023/07/07 02:36:37;;;;;;;;;;;10.70;75.50;;;;;;6157807;23;19916;-92
2023/07/07 02:39:03;;;;;;;;;;;10.60;76.30;;;;;;6161567;23;19927;-91
2023/07/07 02:41:28;;;;;;;;;;;10.70;76.90;;;;;;6163062;23;19920;-92
2023/07/07 02:43:54;;;;;;;;;;;10.70;77.70;;;;;;6186089;23;19927;-91
2023/07/07 02:46:20;;;;;;;;;;;10.70;77.80;;;;;;6159867;23;20433;-92
2023/07/07 02:48:45;;;;;;;;;;;10.70;77.90;;;;;;6157350;23;20250;-92
2023/07/07 02:51:11;;;;;;;;;;;10.70;77.70;;;;;;6162929;23;19991;-92
2023/07/07 02:53:37;;;;;;;;;;;10.80;77.70;;;;;;6186450;23;19926;-92
2023/07/07 02:56:03;;;;;;;;;;;10.80;77.80;;;;;;6162984;23;19995;-92
2023/07/07 02:58:29;;;;;;;;;;;10.80;78.00;;;;;;6154672;23;19920;-91
2023/07/07 03:01:09;;;;;;;;;;;10.80;78.40;;;;;;6162860;23;19920;-91
2023/07/07 03:03:42;;;;;;;;;;;10.80;78.90;;;;;;6160841;23;19919;-91
2023/07/07 03:06:10;;;;;;;;;;;11.00;79.10;;;;;;6162058;23;19927;-93
2023/07/07 03:08:36;;;;;;;;;;;11.10;79.00;;;;;;6155005;23;19927;-91
2023/07/07 03:11:06;;;;;;;;;;;11.20;79.00;;;;;;6162301;23;20039;-92
2023/07/07 03:13:32;;;;;;;;;;;11.30;78.90;;;;;;6160421;23;20426;-91
2023/07/07 03:15:58;;;;;;;;;;;11.40;79.00;;;;;;6187289;23;19971;-91
2023/07/07 03:18:23;;;;;;;;;;;11.40;79.00;;;;;;6153303;23;19923;-91
2023/07/07 03:20:49;;;;;;;;;;;11.40;79.10;;;;;;6162290;23;19919;-91
2023/07/07 03:23:15;;;;;;;;;;;11.40;79.10;;;;;;6160632;23;19934;-91
2023/07/07 03:25:41;;;;;;;;;;;11.40;79.20;;;;;;6162623;23;19924;-92
2023/07/07 03:28:08;;;;;;;;;;;11.50;79.30;;;;;;6139942;23;19927;-90
2023/07/07 03:30:34;;;;;;;;;;;11.50;79.30;;;;;;6162503;23;19920;-90
2023/07/07 03:33:00;;;;;;;;;;;11.50;79.50;;;;;;6160908;23;19927;-92
2023/07/07 03:35:26;;;;;;;;;;;11.50;79.50;;;;;;6162939;23;20343;-91
2023/07/07 03:37:52;;;;;;;;;;;11.50;79.70;;;;;;6155458;23;19927;-91
2023/07/07 03:40:18;;;;;;;;;;;11.60;79.70;;;;;;6162361;23;20284;-91
2023/07/07 03:42:43;;;;;;;;;;;11.70;79.60;;;;;;6160893;23;19983;-91
2023/07/07 03:45:10;;;;;;;;;;;11.70;79.70;;;;;;6162462;23;19927;-91
2023/07/07 03:47:35;;;;;;;;;;;11.70;79.60;;;;;;6153335;23;20159;-91
2023/07/07 03:50:01;;;;;;;;;;;11.70;79.90;;;;;;6162848;23;19951;-92
2023/07/07 03:52:27;;;;;;;;;;;11.70;79.80;;;;;;6160098;23;19971;-90
2023/07/07 03:54:54;;;;;;;;;;;11.80;79.80;;;;;;6162573;23;19920;-91
2023/07/07 03:57:20;;;;;;;;;;;11.90;79.90;;;;;;6153756;23;19951;-91
2023/07/07 03:59:47;;;;;;;;;;;11.90;79.90;;;;;;6162483;23;19931;-91
2023/07/07 04:02:15;;;;;;;;;;;11.90;79.90;;;;;;6136349;23;20386;-91
2023/07/07 04:04:41;;;;;;;;;;;11.90;80.00;;;;;;6162461;23;19931;-92
2023/07/07 04:07:07;;;;;;;;;;;11.90;80.10;;;;;;6153897;23;19916;-91
2023/07/07 04:09:33;;;;;;;;;;;11.90;80.20;;;;;;6186643;23;20345;-91
2023/07/07 04:12:06;;;;;;;;;;;12.00;80.20;;;;;;6162753;23;19991;-92
2023/07/07 04:14:31;;;;;;;;;;;12.00;80.20;;;;;;6160929;23;19927;-92
2023/07/07 04:16:57;;;;;;;;;;;12.00;80.10;;;;;;6155215;23;20355;-89
2023/07/07 04:19:23;;;;;;;;;;;12.10;80.10;;;;;;6160659;23;19920;-89
2023/07/07 04:21:48;;;;;;;;;;;12.10;80.10;;;;;;6162403;23;19920;-89
2023/07/07 04:24:18;;;;;;;;;;;12.20;80.20;;;;;;6160956;23;19920;-89
2023/07/07 04:26:43;;;;;;;;;;;12.20;80.10;;;;;;6156163;23;19923;-90
2023/07/07 04:29:11;;;;;;;;;;;12.30;80.20;;;;;;6160587;23;19920;-91
2023/07/07 04:31:37;;;;;;;;;;;12.30;80.30;;;;;;6140329;23;19956;-92
2023/07/07 04:34:02;;;;;;;;;;;12.40;80.10;;;;;;6162301;23;19931;-93
2023/07/07 04:36:30;;;;;;;;;;;12.50;80.00;;;;;;6160076;23;20398;-90
2023/07/07 04:38:56;;;;;;;;;;;12.50;80.10;;;;;;6162622;23;19924;-89
2023/07/07 04:41:23;;;;;;;;;;;12.50;80.20;;;;;;6163819;23;19943;-89
2023/07/07 04:43:53;;;;;;;;;;;12.50;80.20;;;;;;6162762;23;19920;-90
2023/07/07 04:46:38;;;;;;;;;;;12.60;80.10;;;;;;6160820;23;19927;-91
2023/07/07 04:49:08;;;;;;;;;;;12.70;80.00;;;;;;6157295;23;20120;-91
2023/07/07 04:51:39;;;;;;;;;;;12.70;80.20;;;;;;6160434;23;19973;-89
2023/07/07 04:54:06;;;;;;;;;;;12.80;80.20;;;;;;6135405;23;19924;-91
2023/07/07 04:56:33;;;;;;;;;;;12.80;80.10;;;;;;6156931;23;20059;-91
2023/07/07 04:58:58;;;;;;;;;;;12.90;80.00;;;;;;6159080;23;19926;-90
2023/07/07 05:01:26;;;;;;;;;;;12.90;80.10;;;;;;6163139;23;19995;-90
2023/07/07 05:03:53;;;;;;;;;;;13.00;80.10;;;;;;6161678;23;20021;-89
2023/07/07 05:06:20;;;;;;;;;;;13.10;80.10;;;;;;6161475;23;19920;-89
2023/07/07 05:08:46;;;;;;;;;;;13.20;80.00;;;;;;6157271;23;19951;-90
2023/07/07 05:11:12;;;;;;;;;;;13.30;79.70;;;;;;6162970;23;19920;-90
2023/07/07 05:13:40;;;;;;;;;;;13.40;79.40;;;;;;6161821;23;19926;-90
2023/07/07 05:16:07;;;;;;;;;;;13.50;79.30;;;;;;6163235;23;19924;-91
2023/07/07 05:18:33;;;;;;;;;;;13.70;79.30;;;;;;6155457;23;19920;-91
2023/07/07 05:20:59;;;;;;;;;;;13.90;79.00;;;;;;6164083;23;19960;-90
2023/07/07 05:23:25;;;;;;;;;;;13.90;79.00;;;;;;6161782;23;19924;-91
2023/07/07 05:25:51;;;;;;;;;;;14.10;78.90;;;;;;6163417;23;19946;-90
2023/07/07 05:28:17;;;;;;;;;;;14.20;78.80;;;;;;6155137;23;20331;-90
2023/07/07 05:30:43;;;;;;;;;;;14.30;78.70;;;;;;6163925;23;19921;-90
2023/07/07 05:33:09;;;;;;;;;;;14.40;78.50;;;;;;6161612;23;19930;-91
2023/07/07 05:35:34;;;;;;;;;;;14.50;78.40;;;;;;6163925;23;19958;-91
2023/07/07 05:38:20;;;;;;;;;;;14.60;78.30;;;;;;6156600;23;19924;-91
2023/07/07 05:40:46;;;;;;;;;;;14.70;78.10;;;;;;6164153;23;20302;-91
2023/07/07 05:43:12;;;;;;;;;;;14.80;77.60;;;;;;6148049;23;19923;-90
2023/07/07 05:45:43;;;;;;;;;;;14.90;77.40;;;;;;6164302;23;19930;-91
2023/07/07 05:48:09;;;;;;;;;;;15.00;77.50;;;;;;6154185;23;19927;-91
2023/07/07 05:50:35;;;;;;;;;;;15.20;77.30;;;;;;6163254;23;20374;-89
2023/07/07 05:53:02;;;;;;;;;;;15.30;77.10;;;;;;6161753;23;19924;-91
2023/07/07 05:55:30;;;;;;;;;;;15.40;76.50;;;;;;6139301;23;19959;-90
2023/07/07 05:57:56;;;;;;;;;;;15.50;76.70;;;;;;6140601;23;19919;-90
2023/07/07 06:00:22;;;;;;;;;;;15.60;75.90;;;;;;6163846;23;19971;-90
2023/07/07 06:02:58;;;;;;;;;;;15.80;75.70;;;;;;6147310;23;19920;-93
2023/07/07 06:05:27;;;;;;;;;;;15.80;75.40;;;;;;6163705;23;19949;-90
2023/07/07 06:07:53;;;;;;;;;;;16.00;75.10;;;;;;6154363;23;19920;-89
2023/07/07 06:10:27;;;;;;;;;;;16.10;75.00;;;;;;6162328;23;20226;-90
2023/07/07 06:13:02;;;;;;;;;;;16.10;75.40;;;;;;6148417;23;19920;-89
2023/07/07 06:15:31;;;;;;;;;;;16.20;75.30;;;;;;6161579;23;19951;-90
2023/07/07 06:17:56;;;;;;;;;;;16.30;75.10;;;;;;6117743;23;19978;-89
2023/07/07 06:20:33;;;;;;;;;;;16.40;74.80;;;;;;6162495;23;19924;-92
2023/07/07 06:23:11;;;;;;;;;;;;;;;;;;;;;
2023/07/07 06:25:43;;;;;;;;;;;16.50;74.30;;;;;;6164712;23;19927;-91
2023/07/07 06:28:11;;;;;;;;;;;16.60;73.70;;;;;;6153341;23;20303;-91
2023/07/07 06:31:00;;;;;;;;;;;16.70;74.30;;;;;;6138273;23;19920;-92
2023/07/07 06:33:42;;;;;;;;;;;;;;;;;;;;;
2023/07/07 06:36:17;;;;;;;;;;;16.80;73.80;;;;;;6186176;23;19999;-91
2023/07/07 06:39:02;;;;;;;;;;;16.90;72.30;;;;;;6157908;23;19923;-91
2023/07/07 06:44:22;;;;;;;;;;;17.00;72.70;;;;;;6156438;23;19920;-91
2023/07/07 06:46:57;;;;;;;;;;;17.00;72.00;;;;;;6157024;23;19921;-92
2023/07/07 06:49:25;;;;;;;;;;;17.20;72.30;;;;;;6159928;23;19924;-92
2023/07/07 06:51:59;;;;;;;;;;;17.20;72.70;;;;;;6163396;23;19920;-89
2023/07/07 06:58:17;;;;;;;;;;;17.40;71.10;;;;;;6165234;23;20418;-90
2023/07/07 07:00:51;;;;;;;;;;;17.50;71.80;;;;;;6114541;23;19924;-90
2023/07/07 07:03:25;;;;;;;;;;;17.60;72.20;;;;;;6081868;23;20773;-90
2023/07/07 07:06:13;;;;;;;;;;;;;;;;;;;;;
2023/07/07 07:22:55;;;;;;;;;;;;;;;;;;;;;
2023/07/07 07:29:19;;;;;;;;;;;;;;;;;;;;;
2023/07/07 07:35:15;;;;;;;;;;;;;;;;;;;;;
2023/07/07 07:38:09;;;;;;;;;;;18.40;68.90;;;;;;6053596;23;20389;-89
2023/07/07 07:41:17;;;;;;;;;;;;;;;;;;;;;
2023/07/07 07:43:56;;;;;;;;;;;18.50;69.30;;;;;;6113604;23;19998;-90
2023/07/07 07:46:31;;;;;;;;;;;18.60;68.90;;;;;;6119386;23;19973;-91
2023/07/07 07:52:33;;;;;;;;;;;18.80;68.90;;;;;;6150796;23;19970;-93
2023/07/07 07:55:43;;;;;;;;;;;18.90;68.10;;;;;;6158578;23;20220;-91
2023/07/07 08:18:41;;;;;;;;;;;19.50;66.50;;;;;;5893136;24;19927;-91
2023/07/07 08:21:26;;;;;;;;;;;19.60;67.10;;;;;;5929439;24;19926;-92
2023/07/07 08:23:52;;;;;;;;;;;19.70;65.30;;;;;;5949530;24;19958;-90
2023/07/07 08:26:20;;;;;;;;;;;19.70;64.40;;;;;;5948714;23;19973;-92
2023/07/07 08:28:46;;;;;;;;;;;19.90;64.60;;;;;;5943299;23;19929;-88
2023/07/07 08:31:12;;;;;;;;;;;19.90;63.90;;;;;;5954811;23;19925;-90
2023/07/07 08:33:43;;;;;;;;;;;20.00;65.30;;;;;;5975263;23;19926;-89
2023/07/07 08:36:20;;;;;;;;;;;;;;;;;;;;;
2023/07/07 08:38:58;;;;;;;;;;;20.10;66.20;;;;;;6143026;23;19921;-91
2023/07/07 08:41:43;;;;;;;;;;;20.30;66.20;;;;;;6123739;23;20353;-92
2023/07/07 08:44:15;;;;;;;;;;;20.30;64.60;;;;;;6110707;23;19936;-90
2023/07/07 08:46:55;;;;;;;;;;;20.40;64.40;;;;;;6122558;23;19920;-89
2023/07/07 08:50:05;;;;;;;;;;;20.50;64.80;;;;;;6096996;23;19924;-90
2023/07/07 08:52:58;;;;;;;;;;;20.50;64.00;;;;;;6131935;23;20391;-91
2023/07/07 08:59:35;;;;;;;;;;;20.70;62.60;;;;;;6125363;23;19944;-90
2023/07/07 09:02:06;;;;;;;;;;;20.80;62.20;;;;;;6152165;23;19979;-90
2023/07/07 09:04:35;;;;;;;;;;;20.90;60.40;;;;;;6125335;23;19920;-94
2023/07/07 09:07:01;;;;;;;;;;;20.90;62.70;;;;;;6116215;23;20682;-90
2023/07/07 09:09:39;;;;;;;;;;;21.00;61.80;;;;;;6108771;23;19983;-92
2023/07/07 09:12:07;;;;;;;;;;;21.10;61.10;;;;;;6120855;23;19959;-90
2023/07/07 09:14:33;;;;;;;;;;;21.10;60.10;;;;;;6150498;23;20351;-90
2023/07/07 09:17:03;;;;;;;;;;;21.20;61.10;;;;;;6148934;23;20219;-90
2023/07/07 09:22:28;;;;;;;;;;;21.40;58.00;;;;;;6143477;23;19930;-90
2023/07/07 09:25:02;;;;;;;;;;;21.50;58.20;;;;;;6154473;23;19920;-90
2023/07/07 09:34:34;;;;;;;;;;;21.60;56.60;;;;;;5990054;23;19922;-91
2023/07/07 10:11:37;;;;;;;;;;;22.20;56.60;;;;;;6225087;22;19918;-95
2023/07/07 10:14:31;;;;;;;;;;;22.20;58.20;;;;;;6171873;23;19923;-96
2023/07/07 10:17:03;;;;;;;;;;;22.30;57.90;;;;;;6210945;23;19919;-95
2023/07/07 10:19:53;;;;;;;;;;;22.30;58.10;;;;;;6059231;22;20925;-95
2023/07/07 10:22:20;;;;;;;;;;;22.30;57.70;;;;;;6181124;22;19923;-94
2023/07/07 10:28:09;;;;;;;;;;;22.50;58.80;;;;;;6245724;22;19934;-96
2023/07/07 10:48:51;;;;;;;;;;;;;;;;;;;;;
2023/07/07 10:52:17;;;;;;;;;;;;;;;;;;;;;
2023/07/07 10:55:25;;;;;;;;;;;22.70;57.00;;;;;;6044370;23;20001;-96
2023/07/07 11:01:44;;;;;;;;;;;22.90;55.50;;;;;;6051849;23;19917;-95
2023/07/07 11:04:53;;;;;;;;;;;22.90;57.10;;;;;;6042965;23;20017;-96
2023/07/07 11:28:01;;;;;;;;;;;;;;;;;;;;;
2023/07/07 11:30:55;;;;;;;;;;;;;;;;;;;;;
2023/07/07 12:04:14;;;;;;;;;;;23.40;57.10;;;;;;5908828;23;19957;-94
2023/07/07 12:06:53;;;;;;;;;;;23.50;56.10;;;;;;6062970;23;20230;-94
2023/07/07 12:09:42;;;;;;;;;;;23.60;57.10;;;;;;6206470;23;20625;-94
2023/07/07 12:12:36;;;;;;;;;;;23.60;56.80;;;;;;6206400;23;20331;-95
2023/07/07 12:15:08;;;;;;;;;;;23.60;54.40;;;;;;6183500;23;19919;-93
2023/07/07 12:17:48;;;;;;;;;;;23.60;55.00;;;;;;6178466;23;20409;-92
2023/07/07 12:20:26;;;;;;;;;;;23.60;55.00;;;;;;6189773;23;19920;-93
2023/07/07 12:23:04;;;;;;;;;;;23.60;54.90;;;;;;6171041;23;19924;-93
2023/07/07 12:25:33;;;;;;;;;;;23.60;54.80;;;;;;6183432;23;19931;-95
2023/07/07 12:28:01;;;;;;;;;;;23.60;56.50;;;;;;6175341;23;19961;-93
2023/07/07 12:30:42;;;;;;;;;;;23.60;56.20;;;;;;6183346;23;19919;-94
2023/07/07 12:33:08;;;;;;;;;;;23.80;55.50;;;;;;6206780;23;19919;-94
2023/07/07 12:35:51;;;;;;;;;;;23.70;53.70;;;;;;6184662;23;20014;-93
2023/07/07 12:38:25;;;;;;;;;;;23.80;54.60;;;;;;6203086;23;19930;-96
2023/07/07 12:40:52;;;;;;;;;;;23.80;56.70;;;;;;6178125;23;19919;-95
2023/07/07 12:43:36;;;;;;;;;;;23.90;53.10;;;;;;6166050;23;19920;-93
2023/07/07 12:46:03;;;;;;;;;;;23.90;54.40;;;;;;6183949;23;19927;-95
2023/07/07 12:48:31;;;;;;;;;;;24.00;55.20;;;;;;6141305;23;19971;-93
2023/07/07 12:51:04;;;;;;;;;;;23.90;54.80;;;;;;6183374;23;19923;-94
2023/07/07 12:53:31;;;;;;;;;;;24.00;56.60;;;;;;6167381;23;19923;-96
2023/07/07 12:58:56;;;;;;;;;;;23.90;56.60;;;;;;6193192;23;19920;-94
2023/07/07 13:01:38;;;;;;;;;;;24.00;56.00;;;;;;6211137;23;19920;-94
2023/07/07 13:04:27;;;;;;;;;;;23.90;56.20;;;;;;6196536;23;19923;-94
2023/07/07 13:07:06;;;;;;;;;;;;;;;;;;;;;
2023/07/07 13:09:45;;;;;;;;;;;23.90;55.00;;;;;;6210312;23;19932;-94
2023/07/07 13:12:39;;;;;;;;;;;24.00;54.60;;;;;;6183966;23;19935;-93
2023/07/07 13:15:31;;;;;;;;;;;24.00;54.60;;;;;;6187468;23;20023;-94
2023/07/07 13:17:59;;;;;;;;;;;24.00;54.70;;;;;;6118226;23;20354;-93
2023/07/07 13:20:25;;;;;;;;;;;24.00;54.80;;;;;;6145853;23;20356;-92
2023/07/07 13:26:25;;;;;;;;;;;24.00;55.20;;;;;;6234368;23;19919;-95
2023/07/07 13:29:28;;;;;;;;;;;;;;;;;;;;;
2023/07/07 13:42:30;;;;;;;;;;;24.00;54.80;;;;;;6024948;23;19935;-90
2023/07/07 13:45:20;;;;;;;;;;;24.10;53.80;;;;;;6105438;23;19928;-95
2023/07/07 13:47:47;;;;;;;;;;;24.20;53.00;;;;;;6111778;23;19920;-92
2023/07/07 13:50:22;;;;;;;;;;;24.20;52.70;;;;;;6120627;23;19931;-92
2023/07/07 13:53:01;;;;;;;;;;;24.20;52.60;;;;;;6133611;23;19943;-93
2023/07/07 13:55:31;;;;;;;;;;;24.30;55.20;;;;;;6178194;23;19951;-92
2023/07/07 13:58:00;;;;;;;;;;;24.40;55.20;;;;;;6201571;23;19931;-92
2023/07/07 14:00:28;;;;;;;;;;;24.40;53.70;;;;;;6206819;23;19923;-93
2023/07/07 14:02:57;;;;;;;;;;;24.40;53.70;;;;;;6206123;23;19923;-93
2023/07/07 14:05:24;;;;;;;;;;;24.40;53.40;;;;;;6182041;23;19951;-91
2023/07/07 14:07:50;;;;;;;;;;;24.40;53.30;;;;;;6160259;23;19923;-92
2023/07/07 14:10:21;;;;;;;;;;;24.50;52.30;;;;;;6184529;23;19923;-94
2023/07/07 14:12:50;;;;;;;;;;;24.50;53.80;;;;;;6192415;23;19958;-94
2023/07/07 14:15:23;;;;;;;;;;;24.50;52.00;;;;;;6183862;23;19982;-91
2023/07/07 14:17:48;;;;;;;;;;;24.60;53.10;;;;;;6175024;23;19955;-91
2023/07/07 14:20:29;;;;;;;;;;;24.60;52.80;;;;;;6208557;23;20330;-92
2023/07/07 14:22:56;;;;;;;;;;;24.70;54.20;;;;;;6165880;23;19942;-92
2023/07/07 14:25:44;;;;;;;;;;;24.70;52.20;;;;;;6183449;23;19982;-92
2023/07/07 14:28:12;;;;;;;;;;;24.70;53.20;;;;;;6200439;23;19923;-92
2023/07/07 14:30:44;;;;;;;;;;;24.80;52.00;;;;;;6183033;23;20336;-91
2023/07/07 14:33:12;;;;;;;;;;;24.80;52.10;;;;;;6182365;23;19923;-92
2023/07/07 14:35:49;;;;;;;;;;;;;;;;;;;;;
2023/07/07 14:39:06;;;;;;;;;;;24.90;53.20;;;;;;6191521;23;19918;-92
2023/07/07 14:41:47;;;;;;;;;;;25.00;51.40;;;;;;6191743;23;19955;-91
2023/07/07 14:44:34;;;;;;;;;;;25.00;52.20;;;;;;6166441;23;19965;-92
2023/07/07 14:47:08;;;;;;;;;;;25.00;51.60;;;;;;6191283;23;19920;-92
2023/07/07 14:49:40;;;;;;;;;;;25.00;49.80;;;;;;6178644;23;19930;-91
2023/07/07 14:52:21;;;;;;;;;;;25.10;50.10;;;;;;6193664;22;19919;-92
2023/07/07 14:55:39;;;;;;;;;;;25.10;51.60;;;;;;6195966;23;19962;-93
2023/07/07 14:58:23;;;;;;;;;;;25.20;50.70;;;;;;6192023;23;19920;-93
2023/07/07 15:01:42;;;;;;;;;;;;;;;;;;;;;
2023/07/07 15:08:23;;;;;;;;;;;;;;;;;;;;;
2023/07/07 15:14:37;;;;;;;;;;;25.50;50.40;;;;;;6089892;23;19924;-94
2023/07/07 15:17:03;;;;;;;;;;;25.60;51.10;;;;;;6065546;23;20563;-90
2023/07/07 15:19:29;;;;;;;;;;;25.60;51.00;;;;;;6042724;23;19925;-94
2023/07/07 15:22:27;;;;;;;;;;;25.60;51.90;;;;;;6127322;23;19923;-95
2023/07/07 15:24:58;;;;;;;;;;;25.70;51.20;;;;;;6158217;23;20323;-96
2023/07/07 15:30:13;;;;;;;;;;;25.80;51.50;;;;;;6169453;22;19923;-94
2023/07/07 15:32:40;;;;;;;;;;;25.80;51.60;;;;;;6142893;23;19926;-95
2023/07/07 15:35:10;;;;;;;;;;;25.80;51.70;;;;;;6165717;23;20258;-93
2023/07/07 15:37:46;;;;;;;;;;;;;;;;;;;;;
2023/07/07 15:40:15;;;;;;;;;;;26.00;49.90;;;;;;6210839;23;19924;-96
2023/07/07 15:49:03;;;;;;;;;;;26.10;51.40;;;;;;6221223;22;20002;-95
2023/07/07 15:51:33;;;;;;;;;;;26.10;51.90;;;;;;6189322;23;19919;-96
2023/07/07 15:57:24;;;;;;;;;;;26.10;51.10;;;;;;6179298;23;19923;-96
2023/07/07 15:59:53;;;;;;;;;;;26.10;50.50;;;;;;6191360;23;19926;-96
2023/07/07 16:02:32;;;;;;;;;;;26.20;50.90;;;;;;6234853;23;19955;-96
2023/07/07 16:08:13;;;;;;;;;;;26.20;50.60;;;;;;6193909;22;19920;-94
2023/07/07 16:10:55;;;;;;;;;;;;;;;;;;;;;
2023/07/07 16:16:36;;;;;;;;;;;26.10;51.30;;;;;;6244668;22;19927;-95
2023/07/07 16:19:30;;;;;;;;;;;;;;;;;;;;;
2023/07/07 16:22:14;;;;;;;;;;;26.00;49.50;;;;;;6195748;23;19927;-95
2023/07/07 16:24:54;;;;;;;;;;;26.00;49.90;;;;;;6218373;23;19997;-95
2023/07/07 16:30:17;;;;;;;;;;;26.10;50.70;;;;;;6246715;22;19920;-94
2023/07/07 16:33:01;;;;;;;;;;;26.20;51.40;;;;;;6181898;23;19931;-96
2023/07/07 16:35:27;;;;;;;;;;;26.20;49.50;;;;;;6222754;23;19951;-93
2023/07/07 16:37:53;;;;;;;;;;;26.10;49.70;;;;;;6214614;23;19926;-94
2023/07/07 16:40:40;;;;;;;;;;;26.10;50.40;;;;;;6196721;23;19920;-90
2023/07/07 16:43:28;;;;;;;;;;;;;;;;;;;;;
2023/07/07 16:49:51;;;;;;;;;;;;;;;;;;;;;
2023/07/07 16:55:40;;;;;;;;;;;26.10;48.20;;;;;;6137072;23;20565;-94
2023/07/07 16:58:14;;;;;;;;;;;26.10;50.00;;;;;;6113398;23;19924;-94
2023/07/07 17:03:28;;;;;;;;;;;26.10;50.70;;;;;;6168133;23;19955;-94
2023/07/07 17:12:44;;;;;;;;;;;25.90;50.80;;;;;;6107161;23;19950;-89
2023/07/07 17:18:34;;;;;;;;;;;25.60;52.80;;;;;;6208860;23;19919;-92
2023/07/07 17:21:07;;;;;;;;;;;25.40;53.10;;;;;;6193526;23;20322;-93
2023/07/07 17:26:55;;;;;;;;;;;25.10;55.50;;;;;;6242014;23;19918;-90
2023/07/07 17:29:20;;;;;;;;;;;25.00;55.80;;;;;;6190386;23;19979;-89
2023/07/07 17:31:46;;;;;;;;;;;25.00;56.50;;;;;;6194505;23;20002;-91
2023/07/07 17:34:14;;;;;;;;;;;24.80;57.00;;;;;;6179882;23;19946;-89
2023/07/07 17:36:45;;;;;;;;;;;24.70;57.60;;;;;;6165175;23;19926;-89
2023/07/07 17:39:20;;;;;;;;;;;24.50;57.80;;;;;;6193959;23;20011;-90
2023/07/07 17:41:46;;;;;;;;;;;24.40;58.30;;;;;;6194228;23;19919;-88
2023/07/07 17:44:12;;;;;;;;;;;24.30;58.80;;;;;;6217640;23;19943;-89
2023/07/07 17:46:38;;;;;;;;;;;24.20;59.50;;;;;;6164265;23;19915;-88
2023/07/07 17:49:11;;;;;;;;;;;24.20;59.50;;;;;;6166079;23;19920;-90
2023/07/07 17:51:39;;;;;;;;;;;24.00;59.90;;;;;;6194099;23;19919;-88
2023/07/07 17:54:08;;;;;;;;;;;23.90;60.40;;;;;;6192719;23;19943;-90
2023/07/07 17:56:37;;;;;;;;;;;23.80;60.20;;;;;;6165000;23;19978;-92
2023/07/07 17:59:25;;;;;;;;;;;23.60;60.60;;;;;;6191686;23;19920;-91
2023/07/07 18:01:56;;;;;;;;;;;23.50;60.80;;;;;;6194399;23;19970;-89
2023/07/07 18:04:24;;;;;;;;;;;23.40;61.20;;;;;;6177755;23;19919;-90
2023/07/07 18:06:50;;;;;;;;;;;23.30;60.90;;;;;;6188160;23;19916;-90
2023/07/07 18:09:19;;;;;;;;;;;23.20;61.30;;;;;;6191902;23;19920;-89
2023/07/07 18:11:48;;;;;;;;;;;23.10;61.60;;;;;;6193741;23;19924;-90
2023/07/07 18:14:13;;;;;;;;;;;23.00;61.60;;;;;;6176143;23;19920;-88
2023/07/07 18:17:04;;;;;;;;;;;22.90;61.90;;;;;;6188508;23;20537;-94
2023/07/07 18:23:19;;;;;;;;;;;22.70;62.00;;;;;;6157718;22;20338;-92
2023/07/07 18:25:51;;;;;;;;;;;22.50;62.20;;;;;;6178383;23;19920;-93
2023/07/07 18:32:38;;;;;;;;;;;22.40;62.30;;;;;;6152667;23;20274;-93
2023/07/07 18:36:25;;;;;;;;;;;22.30;62.60;;;;;;6127861;23;20359;-95
2023/07/07 18:38:35;;;;;;;;;;;22.20;62.60;;;;;;6066684;23;19995;-93
2023/07/07 18:44:36;;;;;;;;;;;;;;;;;;;;;
2023/07/07 18:47:42;;;;;;;;;;;21.90;63.60;;;;;;6117938;23;20012;-96
2023/07/07 19:03:57;;;;;;;;;;;21.50;64.00;;;;;;6226702;22;19920;-94
2023/07/07 19:06:30;;;;;;;;;;;21.30;63.80;;;;;;6194802;23;19989;-92
2023/07/07 19:09:04;;;;;;;;;;;21.30;64.10;;;;;;6177623;23;19919;-92
2023/07/07 19:11:30;;;;;;;;;;;21.10;64.40;;;;;;6220306;23;19982;-91
2023/07/07 19:13:55;;;;;;;;;;;21.10;64.20;;;;;;6191369;23;20362;-92
2023/07/07 19:16:26;;;;;;;;;;;21.00;64.40;;;;;;6214046;23;20074;-91
2023/07/07 19:18:53;;;;;;;;;;;21.00;64.50;;;;;;6155676;23;19971;-92
2023/07/07 19:21:21;;;;;;;;;;;20.90;64.50;;;;;;6187734;23;19974;-91
2023/07/07 19:23:50;;;;;;;;;;;20.80;64.70;;;;;;6187217;23;19974;-93
2023/07/07 19:26:18;;;;;;;;;;;20.70;64.80;;;;;;6187835;23;19923;-90
2023/07/07 19:28:44;;;;;;;;;;;20.60;65.10;;;;;;6167985;23;19924;-91
2023/07/07 19:31:13;;;;;;;;;;;20.50;65.00;;;;;;6210635;23;19930;-91
2023/07/07 19:33:42;;;;;;;;;;;20.50;65.20;;;;;;6159358;23;20417;-91
2023/07/07 19:36:20;;;;;;;;;;;20.40;65.20;;;;;;6188865;23;19998;-92
2023/07/07 19:38:47;;;;;;;;;;;20.30;65.30;;;;;;6182254;23;20357;-92
2023/07/07 19:41:15;;;;;;;;;;;20.30;65.40;;;;;;6189479;23;19923;-91